Onslow, Iowa
Current Conditions -  °F | °C
As of 3:55 AM on Friday 28 Nov 2014 (Local Time) from KMXO Reporting Station
Overcast Overcast  
Wind Chill:   Ceiling: 10000
Heat Index: 16°   Visibility: 10mi
Dew Point:   Wind: 13mph
Humidity: 73%   Direction: 130°SE
Pressure: 30.22"   Gusts: NA
Location:  42.11°N, 91.02°W
Report Text: KMXO 280955Z AUTO 13011KT 10SM SCT075 OVC100 M09/M13 A3022 RMK AO2
Loading
Personal Weather Stations






























Interactive Weather Map New forecast layout! Learn more

10-Day Weather Forecast

Advertisements
Track Severe Weather on mobile